sensor_id;sensor_type;location;lat;lon;timestamp;temperature;humidity
35593;DHT22;64447;52.140;5.602;2023-09-18T00:01:27;19.70;99.90
35593;DHT22;64447;52.140;5.602;2023-09-18T00:03:53;19.70;99.90
35593;DHT22;64447;52.140;5.602;2023-09-18T00:06:19;19.70;99.90
35593;DHT22;64447;52.140;5.602;2023-09-18T00:08:45;19.70;99.90
35593;DHT22;64447;52.140;5.602;2023-09-18T00:14:32;19.80;99.90
35593;DHT22;64447;52.140;5.602;2023-09-18T00:16:58;19.80;99.90
35593;DHT22;64447;52.140;5.602;2023-09-18T00:19:23;19.80;99.90
35593;DHT22;64447;52.140;5.602;2023-09-18T00:21:50;19.80;99.90
35593;DHT22;64447;52.140;5.602;2023-09-18T00:24:17;19.80;99.90
35593;DHT22;64447;52.140;5.602;2023-09-18T00:26:42;19.60;99.90
35593;DHT22;64447;52.140;5.602;2023-09-18T00:29:08;19.60;99.90
35593;DHT22;64447;52.140;5.602;2023-09-18T00:31:33;19.70;99.90
35593;DHT22;64447;52.140;5.602;2023-09-18T00:33:59;19.70;99.90
35593;DHT22;64447;52.140;5.602;2023-09-18T00:36:25;19.70;99.90
35593;DHT22;64447;52.140;5.602;2023-09-18T00:38:50;19.80;99.90
35593;DHT22;64447;52.140;5.602;2023-09-18T00:44:37;19.80;99.90
35593;DHT22;64447;52.140;5.602;2023-09-18T00:47:03;19.70;99.90
35593;DHT22;64447;52.140;5.602;2023-09-18T00:49:28;19.80;99.90
35593;DHT22;64447;52.140;5.602;2023-09-18T00:51:54;19.80;99.90
35593;DHT22;64447;52.140;5.602;2023-09-18T00:54:20;19.80;99.90
35593;DHT22;64447;52.140;5.602;2023-09-18T00:56:46;19.80;99.90
35593;DHT22;64447;52.140;5.602;2023-09-18T00:59:13;19.80;99.90
35593;DHT22;64447;52.140;5.602;2023-09-18T01:01:40;19.90;99.90
35593;DHT22;64447;52.140;5.602;2023-09-18T01:04:07;19.80;99.90
35593;DHT22;64447;52.140;5.602;2023-09-18T01:06:33;19.80;99.90
35593;DHT22;64447;52.140;5.602;2023-09-18T01:08:58;19.80;99.90
35593;DHT22;64447;52.140;5.602;2023-09-18T01:15:07;19.90;99.90
35593;DHT22;64447;52.140;5.602;2023-09-18T01:17:36;19.60;99.90
35593;DHT22;64447;52.140;5.602;2023-09-18T01:20:04;19.40;99.90
35593;DHT22;64447;52.140;5.602;2023-09-18T01:22:31;19.50;99.90
35593;DHT22;64447;52.140;5.602;2023-09-18T01:24:57;19.60;99.90
35593;DHT22;64447;52.140;5.602;2023-09-18T01:27:23;19.60;99.90
35593;DHT22;64447;52.140;5.602;2023-09-18T01:29:49;19.70;99.90
35593;DHT22;64447;52.140;5.602;2023-09-18T01:32:15;19.70;99.90
35593;DHT22;64447;52.140;5.602;2023-09-18T01:34:45;19.70;99.90
35593;DHT22;64447;52.140;5.602;2023-09-18T01:37:12;19.70;99.90
35593;DHT22;64447;52.140;5.602;2023-09-18T01:39:39;19.80;99.90
35593;DHT22;64447;52.140;5.602;2023-09-18T01:42:06;19.80;99.90
35593;DHT22;64447;52.140;5.602;2023-09-18T01:44:33;19.80;99.90
35593;DHT22;64447;52.140;5.602;2023-09-18T01:46:59;19.70;99.90
35593;DHT22;64447;52.140;5.602;2023-09-18T01:49:38;19.50;99.90
35593;DHT22;64447;52.140;5.602;2023-09-18T01:52:04;19.50;99.90
35593;DHT22;64447;52.140;5.602;2023-09-18T01:54:31;19.50;99.90
35593;DHT22;64447;52.140;5.602;2023-09-18T01:56:57;19.60;99.90
35593;DHT22;64447;52.140;5.602;2023-09-18T01:59:23;19.60;99.90
35593;DHT22;64447;52.140;5.602;2023-09-18T02:01:50;19.70;99.90
35593;DHT22;64447;52.140;5.602;2023-09-18T02:04:16;19.70;99.90
35593;DHT22;64447;52.140;5.602;2023-09-18T02:06:43;19.70;99.90
35593;DHT22;64447;52.140;5.602;2023-09-18T02:09:08;19.70;99.90
35593;DHT22;64447;52.140;5.602;2023-09-18T02:14:56;19.80;99.90
35593;DHT22;64447;52.140;5.602;2023-09-18T02:17:23;19.70;99.90
35593;DHT22;64447;52.140;5.602;2023-09-18T02:19:49;19.70;99.90
35593;DHT22;64447;52.140;5.602;2023-09-18T02:22:15;19.70;99.90
35593;DHT22;64447;52.140;5.602;2023-09-18T02:24:40;19.80;99.90
35593;DHT22;64447;52.140;5.602;2023-09-18T02:27:06;19.80;99.90
35593;DHT22;64447;52.140;5.602;2023-09-18T02:29:32;19.80;99.90
35593;DHT22;64447;52.140;5.602;2023-09-18T02:31:58;19.80;99.90
35593;DHT22;64447;52.140;5.602;2023-09-18T02:34:23;19.90;99.90
35593;DHT22;64447;52.140;5.602;2023-09-18T02:36:49;19.90;99.90
35593;DHT22;64447;52.140;5.602;2023-09-18T02:39:14;20.00;99.90
35593;DHT22;64447;52.140;5.602;2023-09-18T02:45:02;20.00;99.90
35593;DHT22;64447;52.140;5.602;2023-09-18T02:47:28;20.00;99.90
35593;DHT22;64447;52.140;5.602;2023-09-18T02:49:53;20.00;99.90
35593;DHT22;64447;52.140;5.602;2023-09-18T02:52:19;20.00;99.90
35593;DHT22;64447;52.140;5.602;2023-09-18T02:54:45;20.00;99.90
35593;DHT22;64447;52.140;5.602;2023-09-18T02:57:10;20.00;99.90
35593;DHT22;64447;52.140;5.602;2023-09-18T02:59:36;20.10;99.90
35593;DHT22;64447;52.140;5.602;2023-09-18T03:02:01;20.00;99.90
35593;DHT22;64447;52.140;5.602;2023-09-18T03:04:27;20.10;99.90
35593;DHT22;64447;52.140;5.602;2023-09-18T03:06:54;20.00;99.90
35593;DHT22;64447;52.140;5.602;2023-09-18T03:09:20;20.10;99.90
35593;DHT22;64447;52.140;5.602;2023-09-18T03:15:08;20.00;99.90
35593;DHT22;64447;52.140;5.602;2023-09-18T03:17:34;20.00;99.90
35593;DHT22;64447;52.140;5.602;2023-09-18T03:19:59;20.00;99.90
35593;DHT22;64447;52.140;5.602;2023-09-18T03:22:25;20.00;99.90
35593;DHT22;64447;52.140;5.602;2023-09-18T03:24:51;20.00;99.90
35593;DHT22;64447;52.140;5.602;2023-09-18T03:27:16;20.00;99.90
35593;DHT22;64447;52.140;5.602;2023-09-18T03:29:42;20.10;99.90
35593;DHT22;64447;52.140;5.602;2023-09-18T03:32:07;20.00;99.90
35593;DHT22;64447;52.140;5.602;2023-09-18T03:34:37;20.00;99.90
35593;DHT22;64447;52.140;5.602;2023-09-18T03:37:03;20.10;99.90
35593;DHT22;64447;52.140;5.602;2023-09-18T03:39:29;20.10;99.90
35593;DHT22;64447;52.140;5.602;2023-09-18T03:45:16;20.10;99.90
35593;DHT22;64447;52.140;5.602;2023-09-18T03:47:44;20.10;99.90
35593;DHT22;64447;52.140;5.602;2023-09-18T03:50:11;20.10;99.90
35593;DHT22;64447;52.140;5.602;2023-09-18T03:52:38;20.00;99.90
35593;DHT22;64447;52.140;5.602;2023-09-18T03:55:07;20.10;99.90
35593;DHT22;64447;52.140;5.602;2023-09-18T03:57:34;20.00;99.90
35593;DHT22;64447;52.140;5.602;2023-09-18T03:59:59;20.00;99.90
35593;DHT22;64447;52.140;5.602;2023-09-18T04:02:26;20.00;99.90
35593;DHT22;64447;52.140;5.602;2023-09-18T04:04:53;20.00;99.90
35593;DHT22;64447;52.140;5.602;2023-09-18T04:07:18;20.10;99.90
35593;DHT22;64447;52.140;5.602;2023-09-18T04:09:45;20.10;99.90
35593;DHT22;64447;52.140;5.602;2023-09-18T04:15:32;20.10;99.90
35593;DHT22;64447;52.140;5.602;2023-09-18T04:17:57;20.00;99.90
35593;DHT22;64447;52.140;5.602;2023-09-18T04:20:23;20.00;99.90
35593;DHT22;64447;52.140;5.602;2023-09-18T04:23:19;19.90;99.90
35593;DHT22;64447;52.140;5.602;2023-09-18T04:25:45;19.90;99.90
35593;DHT22;64447;52.140;5.602;2023-09-18T04:28:12;19.80;99.90
35593;DHT22;64447;52.140;5.602;2023-09-18T04:30:38;19.80;99.90
35593;DHT22;64447;52.140;5.602;2023-09-18T04:33:03;19.80;99.90
35593;DHT22;64447;52.140;5.602;2023-09-18T04:35:29;19.80;99.90
35593;DHT22;64447;52.140;5.602;2023-09-18T04:37:58;19.80;99.90
35593;DHT22;64447;52.140;5.602;2023-09-18T04:40:24;19.90;99.90
35593;DHT22;64447;52.140;5.602;2023-09-18T04:42:50;19.70;99.90
35593;DHT22;64447;52.140;5.602;2023-09-18T04:45:15;19.80;99.90
35593;DHT22;64447;52.140;5.602;2023-09-18T04:47:41;19.90;99.90
35593;DHT22;64447;52.140;5.602;2023-09-18T04:50:08;19.90;99.90
35593;DHT22;64447;52.140;5.602;2023-09-18T04:52:33;19.90;99.90
35593;DHT22;64447;52.140;5.602;2023-09-18T04:54:59;20.00;99.90
35593;DHT22;64447;52.140;5.602;2023-09-18T04:57:25;20.00;99.90
35593;DHT22;64447;52.140;5.602;2023-09-18T04:59:50;19.90;99.90
35593;DHT22;64447;52.140;5.602;2023-09-18T05:02:16;19.80;99.90
35593;DHT22;64447;52.140;5.602;2023-09-18T05:04:42;19.70;99.90
35593;DHT22;64447;52.140;5.602;2023-09-18T05:07:07;19.60;99.90
35593;DHT22;64447;52.140;5.602;2023-09-18T05:09:33;19.40;99.90
35593;DHT22;64447;52.140;5.602;2023-09-18T05:15:22;19.20;99.90
35593;DHT22;64447;52.140;5.602;2023-09-18T05:17:48;19.10;99.90
35593;DHT22;64447;52.140;5.602;2023-09-18T05:20:17;19.10;99.90
35593;DHT22;64447;52.140;5.602;2023-09-18T05:22:43;19.10;99.90
35593;DHT22;64447;52.140;5.602;2023-09-18T05:25:10;19.20;99.90
35593;DHT22;64447;52.140;5.602;2023-09-18T05:27:37;19.30;99.90
35593;DHT22;64447;52.140;5.602;2023-09-18T05:32:56;19.80;99.90
35593;DHT22;64447;52.140;5.602;2023-09-18T05:35:22;19.90;99.90
35593;DHT22;64447;52.140;5.602;2023-09-18T05:37:49;19.90;99.90
35593;DHT22;64447;52.140;5.602;2023-09-18T05:40:14;19.90;99.90
35593;DHT22;64447;52.140;5.602;2023-09-18T05:42:41;20.00;99.90
35593;DHT22;64447;52.140;5.602;2023-09-18T05:45:09;20.00;99.90
35593;DHT22;64447;52.140;5.602;2023-09-18T05:47:35;20.10;99.90
35593;DHT22;64447;52.140;5.602;2023-09-18T05:50:02;20.00;99.90
35593;DHT22;64447;52.140;5.602;2023-09-18T05:52:29;20.10;99.90
35593;DHT22;64447;52.140;5.602;2023-09-18T05:54:54;20.10;99.90
35593;DHT22;64447;52.140;5.602;2023-09-18T06:00:42;20.10;99.90
35593;DHT22;64447;52.140;5.602;2023-09-18T06:03:08;20.10;99.90
35593;DHT22;64447;52.140;5.602;2023-09-18T06:05:34;20.20;99.90
35593;DHT22;64447;52.140;5.602;2023-09-18T06:08:00;20.20;99.90
35593;DHT22;64447;52.140;5.602;2023-09-18T06:10:26;20.00;99.90
35593;DHT22;64447;52.140;5.602;2023-09-18T06:12:52;20.10;99.90
35593;DHT22;64447;52.140;5.602;2023-09-18T06:15:17;20.20;99.90
35593;DHT22;64447;52.140;5.602;2023-09-18T06:17:44;20.30;99.90
35593;DHT22;64447;52.140;5.602;2023-09-18T06:20:11;20.20;99.90
35593;DHT22;64447;52.140;5.602;2023-09-18T06:22:39;20.20;99.90
35593;DHT22;64447;52.140;5.602;2023-09-18T06:25:08;20.20;99.90
35593;DHT22;64447;52.140;5.602;2023-09-18T06:31:00;20.10;99.90
35593;DHT22;64447;52.140;5.602;2023-09-18T06:33:25;20.00;99.90
35593;DHT22;64447;52.140;5.602;2023-09-18T06:35:51;20.00;99.90
35593;DHT22;64447;52.140;5.602;2023-09-18T06:38:17;19.80;99.90
35593;DHT22;64447;52.140;5.602;2023-09-18T06:40:52;19.70;99.90
35593;DHT22;64447;52.140;5.602;2023-09-18T06:43:18;19.70;99.90
35593;DHT22;64447;52.140;5.602;2023-09-18T06:45:44;19.70;99.90
35593;DHT22;64447;52.140;5.602;2023-09-18T06:48:09;19.80;99.90
35593;DHT22;64447;52.140;5.602;2023-09-18T06:50:35;19.90;99.90
35593;DHT22;64447;52.140;5.602;2023-09-18T06:53:02;20.00;99.90
35593;DHT22;64447;52.140;5.602;2023-09-18T06:55:27;19.90;99.90
35593;DHT22;64447;52.140;5.602;2023-09-18T07:01:15;20.00;99.90
35593;DHT22;64447;52.140;5.602;2023-09-18T07:03:40;20.00;99.90
35593;DHT22;64447;52.140;5.602;2023-09-18T07:06:06;20.00;99.90
35593;DHT22;64447;52.140;5.602;2023-09-18T07:08:32;20.00;99.90
35593;DHT22;64447;52.140;5.602;2023-09-18T07:10:58;20.20;99.90
35593;DHT22;64447;52.140;5.602;2023-09-18T07:13:24;20.10;99.90
35593;DHT22;64447;52.140;5.602;2023-09-18T07:15:50;20.00;99.90
35593;DHT22;64447;52.140;5.602;2023-09-18T07:18:16;20.00;99.90
35593;DHT22;64447;52.140;5.602;2023-09-18T07:20:43;19.80;99.90
35593;DHT22;64447;52.140;5.602;2023-09-18T07:23:08;19.80;99.90
35593;DHT22;64447;52.140;5.602;2023-09-18T07:25:34;19.90;99.90
35593;DHT22;64447;52.140;5.602;2023-09-18T07:31:22;20.00;99.90
35593;DHT22;64447;52.140;5.602;2023-09-18T07:33:47;19.90;99.90
35593;DHT22;64447;52.140;5.602;2023-09-18T07:36:13;20.00;99.90
35593;DHT22;64447;52.140;5.602;2023-09-18T07:38:40;20.00;99.90
35593;DHT22;64447;52.140;5.602;2023-09-18T07:41:08;20.00;99.90
35593;DHT22;64447;52.140;5.602;2023-09-18T07:43:34;19.90;99.90
35593;DHT22;64447;52.140;5.602;2023-09-18T07:46:00;19.80;99.90
35593;DHT22;64447;52.140;5.602;2023-09-18T07:48:27;19.90;99.90
35593;DHT22;64447;52.140;5.602;2023-09-18T07:50:52;20.00;99.90
35593;DHT22;64447;52.140;5.602;2023-09-18T07:53:20;19.80;99.90
35593;DHT22;64447;52.140;5.602;2023-09-18T07:55:45;19.70;99.90
35593;DHT22;64447;52.140;5.602;2023-09-18T08:01:33;19.90;99.90
35593;DHT22;64447;52.140;5.602;2023-09-18T08:03:59;19.80;99.90
35593;DHT22;64447;52.140;5.602;2023-09-18T08:06:26;19.90;99.90
35593;DHT22;64447;52.140;5.602;2023-09-18T08:08:51;19.90;99.90
35593;DHT22;64447;52.140;5.602;2023-09-18T08:11:17;20.00;99.90
35593;DHT22;64447;52.140;5.602;2023-09-18T08:13:44;20.10;99.90
35593;DHT22;64447;52.140;5.602;2023-09-18T08:16:09;20.20;99.90
35593;DHT22;64447;52.140;5.602;2023-09-18T08:18:35;20.20;99.90
35593;DHT22;64447;52.140;5.602;2023-09-18T08:21:01;20.30;99.90
35593;DHT22;64447;52.140;5.602;2023-09-18T08:23:26;20.30;99.90
35593;DHT22;64447;52.140;5.602;2023-09-18T08:25:53;20.30;99.90
35593;DHT22;64447;52.140;5.602;2023-09-18T08:31:44;20.30;99.90
35593;DHT22;64447;52.140;5.602;2023-09-18T08:34:10;20.10;99.90
35593;DHT22;64447;52.140;5.602;2023-09-18T08:36:36;20.10;99.90
35593;DHT22;64447;52.140;5.602;2023-09-18T08:39:01;20.20;99.90
35593;DHT22;64447;52.140;5.602;2023-09-18T08:41:32;20.10;99.90
35593;DHT22;64447;52.140;5.602;2023-09-18T08:44:02;20.20;99.90
35593;DHT22;64447;52.140;5.602;2023-09-18T08:46:31;20.20;99.90
35593;DHT22;64447;52.140;5.602;2023-09-18T08:49:00;20.20;99.90
35593;DHT22;64447;52.140;5.602;2023-09-18T08:51:27;20.20;99.90
35593;DHT22;64447;52.140;5.602;2023-09-18T08:53:54;20.30;99.90
35593;DHT22;64447;52.140;5.602;2023-09-18T08:56:21;20.30;99.90
35593;DHT22;64447;52.140;5.602;2023-09-18T08:58:48;20.30;99.90
35593;DHT22;64447;52.140;5.602;2023-09-18T09:01:13;20.40;99.90
35593;DHT22;64447;52.140;5.602;2023-09-18T09:03:40;20.30;99.90
35593;DHT22;64447;52.140;5.602;2023-09-18T09:06:08;20.30;99.90
35593;DHT22;64447;52.140;5.602;2023-09-18T09:08:34;20.30;99.90
35593;DHT22;64447;52.140;5.602;2023-09-18T09:11:00;20.30;99.90
35593;DHT22;64447;52.140;5.602;2023-09-18T09:16:49;20.30;99.90
35593;DHT22;64447;52.140;5.602;2023-09-18T09:19:18;20.20;99.90
35593;DHT22;64447;52.140;5.602;2023-09-18T09:21:52;20.30;99.90
35593;DHT22;64447;52.140;5.602;2023-09-18T09:24:39;20.20;99.90
35593;DHT22;64447;52.140;5.602;2023-09-18T09:27:05;20.20;99.90
35593;DHT22;64447;52.140;5.602;2023-09-18T09:29:31;20.20;99.90
35593;DHT22;64447;52.140;5.602;2023-09-18T09:31:58;20.20;99.90
35593;DHT22;64447;52.140;5.602;2023-09-18T09:34:36;20.30;99.90
35593;DHT22;64447;52.140;5.602;2023-09-18T09:37:02;20.50;99.90
35593;DHT22;64447;52.140;5.602;2023-09-18T09:39:29;20.50;99.90
35593;DHT22;64447;52.140;5.602;2023-09-18T09:42:00;20.60;99.90
35593;DHT22;64447;52.140;5.602;2023-09-18T09:44:25;20.80;99.90
35593;DHT22;64447;52.140;5.602;2023-09-18T09:46:51;21.00;99.90
35593;DHT22;64447;52.140;5.602;2023-09-18T09:49:17;21.00;99.90
35593;DHT22;64447;52.140;5.602;2023-09-18T09:51:45;21.00;99.90
35593;DHT22;64447;52.140;5.602;2023-09-18T09:54:11;21.10;99.90
35593;DHT22;64447;52.140;5.602;2023-09-18T10:03:33;21.10;99.90
35593;DHT22;64447;52.140;5.602;2023-09-18T10:05:59;21.00;99.90
35593;DHT22;64447;52.140;5.602;2023-09-18T10:08:26;20.90;99.90
35593;DHT22;64447;52.140;5.602;2023-09-18T10:11:00;21.00;99.90
35593;DHT22;64447;52.140;5.602;2023-09-18T10:13:34;21.00;99.90
35593;DHT22;64447;52.140;5.602;2023-09-18T10:16:04;21.00;99.90
35593;DHT22;64447;52.140;5.602;2023-09-18T10:26:36;20.70;99.90
35593;DHT22;64447;52.140;5.602;2023-09-18T10:29:04;20.60;99.90
35593;DHT22;64447;52.140;5.602;2023-09-18T10:31:34;20.60;99.90
35593;DHT22;64447;52.140;5.602;2023-09-18T10:34:03;20.60;99.90
35593;DHT22;64447;52.140;5.602;2023-09-18T10:36:31;20.70;99.90
35593;DHT22;64447;52.140;5.602;2023-09-18T10:38:58;20.70;99.90
35593;DHT22;64447;52.140;5.602;2023-09-18T10:41:26;20.70;99.90
35593;DHT22;64447;52.140;5.602;2023-09-18T10:43:53;20.80;99.90
35593;DHT22;64447;52.140;5.602;2023-09-18T10:46:20;20.80;99.90
35593;DHT22;64447;52.140;5.602;2023-09-18T10:48:46;21.00;99.90
35593;DHT22;64447;52.140;5.602;2023-09-18T10:51:13;20.90;99.90
35593;DHT22;64447;52.140;5.602;2023-09-18T10:53:40;21.00;99.90
35593;DHT22;64447;52.140;5.602;2023-09-18T10:56:05;21.00;99.90
35593;DHT22;64447;52.140;5.602;2023-09-18T10:58:33;21.00;99.90
35593;DHT22;64447;52.140;5.602;2023-09-18T11:01:05;21.10;99.90
35593;DHT22;64447;52.140;5.602;2023-09-18T11:03:33;21.20;99.90
35593;DHT22;64447;52.140;5.602;2023-09-18T11:06:07;21.40;99.90
35593;DHT22;64447;52.140;5.602;2023-09-18T11:08:43;21.20;99.90
35593;DHT22;64447;52.140;5.602;2023-09-18T11:11:10;21.20;99.90
35593;DHT22;64447;52.140;5.602;2023-09-18T11:13:46;21.10;99.90
35593;DHT22;64447;52.140;5.602;2023-09-18T11:18:52;21.30;99.90
35593;DHT22;64447;52.140;5.602;2023-09-18T11:21:19;21.50;99.90
35593;DHT22;64447;52.140;5.602;2023-09-18T11:24:19;21.70;99.90
35593;DHT22;64447;52.140;5.602;2023-09-18T11:26:45;21.90;99.90
35593;DHT22;64447;52.140;5.602;2023-09-18T11:29:14;21.90;99.90
35593;DHT22;64447;52.140;5.602;2023-09-18T11:31:44;21.70;99.90
35593;DHT22;64447;52.140;5.602;2023-09-18T11:34:24;21.80;99.90
35593;DHT22;64447;52.140;5.602;2023-09-18T11:36:52;21.80;99.90
35593;DHT22;64447;52.140;5.602;2023-09-18T11:42:17;21.70;99.90
35593;DHT22;64447;52.140;5.602;2023-09-18T11:45:18;21.70;99.90
35593;DHT22;64447;52.140;5.602;2023-09-18T11:47:44;21.80;99.90
35593;DHT22;64447;52.140;5.602;2023-09-18T11:50:12;21.90;99.90
35593;DHT22;64447;52.140;5.602;2023-09-18T11:52:38;21.90;99.90
35593;DHT22;64447;52.140;5.602;2023-09-18T11:55:06;22.10;99.90
35593;DHT22;64447;52.140;5.602;2023-09-18T12:00:53;22.10;99.90
35593;DHT22;64447;52.140;5.602;2023-09-18T12:03:21;22.00;99.90
35593;DHT22;64447;52.140;5.602;2023-09-18T12:06:02;21.90;99.90
35593;DHT22;64447;52.140;5.602;2023-09-18T12:08:31;21.90;99.90
35593;DHT22;64447;52.140;5.602;2023-09-18T12:10:58;21.90;99.90
35593;DHT22;64447;52.140;5.602;2023-09-18T12:16:45;21.80;99.90
35593;DHT22;64447;52.140;5.602;2023-09-18T12:19:16;21.90;99.90
35593;DHT22;64447;52.140;5.602;2023-09-18T12:21:46;22.00;99.90
35593;DHT22;64447;52.140;5.602;2023-09-18T12:24:21;22.00;99.90
35593;DHT22;64447;52.140;5.602;2023-09-18T12:26:47;22.00;99.90
35593;DHT22;64447;52.140;5.602;2023-09-18T12:32:39;21.90;99.90
35593;DHT22;64447;52.140;5.602;2023-09-18T12:35:07;21.90;99.90
35593;DHT22;64447;52.140;5.602;2023-09-18T12:37:35;22.00;99.90
35593;DHT22;64447;52.140;5.602;2023-09-18T12:40:01;22.10;99.90
35593;DHT22;64447;52.140;5.602;2023-09-18T12:42:27;22.20;99.90
35593;DHT22;64447;52.140;5.602;2023-09-18T12:48:56;22.40;99.90
35593;DHT22;64447;52.140;5.602;2023-09-18T12:51:29;22.40;99.90
35593;DHT22;64447;52.140;5.602;2023-09-18T12:54:03;22.30;99.90
35593;DHT22;64447;52.140;5.602;2023-09-18T12:56:32;22.30;99.90
35593;DHT22;64447;52.140;5.602;2023-09-18T13:02:19;22.10;99.90
35593;DHT22;64447;52.140;5.602;2023-09-18T13:04:56;22.10;99.90
35593;DHT22;64447;52.140;5.602;2023-09-18T13:07:22;22.10;99.90
35593;DHT22;64447;52.140;5.602;2023-09-18T13:10:04;22.10;99.90
35593;DHT22;64447;52.140;5.602;2023-09-18T13:12:46;22.10;99.90
35593;DHT22;64447;52.140;5.602;2023-09-18T13:18:35;22.20;99.90
35593;DHT22;64447;52.140;5.602;2023-09-18T13:21:08;22.20;99.90
35593;DHT22;64447;52.140;5.602;2023-09-18T13:23:35;22.30;99.90
35593;DHT22;64447;52.140;5.602;2023-09-18T13:26:02;22.40;99.90
35593;DHT22;64447;52.140;5.602;2023-09-18T13:28:28;22.40;99.90
35593;DHT22;64447;52.140;5.602;2023-09-18T13:30:56;22.40;99.90
35593;DHT22;64447;52.140;5.602;2023-09-18T13:33:23;22.50;99.90
35593;DHT22;64447;52.140;5.602;2023-09-18T13:35:51;22.50;99.90
35593;DHT22;64447;52.140;5.602;2023-09-18T13:38:18;22.50;99.90
35593;DHT22;64447;52.140;5.602;2023-09-18T13:40:46;22.60;99.90
35593;DHT22;64447;52.140;5.602;2023-09-18T13:43:13;22.70;99.90
35593;DHT22;64447;52.140;5.602;2023-09-18T13:45:41;22.80;99.90
35593;DHT22;64447;52.140;5.602;2023-09-18T13:48:07;22.70;99.90
35593;DHT22;64447;52.140;5.602;2023-09-18T13:50:33;22.60;99.90
35593;DHT22;64447;52.140;5.602;2023-09-18T13:53:00;22.70;99.90
35593;DHT22;64447;52.140;5.602;2023-09-18T13:55:26;22.80;99.90
35593;DHT22;64447;52.140;5.602;2023-09-18T13:57:51;22.70;99.90
35593;DHT22;64447;52.140;5.602;2023-09-18T14:03:39;22.80;99.90
35593;DHT22;64447;52.140;5.602;2023-09-18T14:06:07;22.80;99.90
35593;DHT22;64447;52.140;5.602;2023-09-18T14:08:33;22.90;99.90
35593;DHT22;64447;52.140;5.602;2023-09-18T14:10:59;22.90;99.90
35593;DHT22;64447;52.140;5.602;2023-09-18T14:13:24;22.90;99.90
35593;DHT22;64447;52.140;5.602;2023-09-18T14:15:50;22.80;99.90
35593;DHT22;64447;52.140;5.602;2023-09-18T14:18:15;22.80;99.90
35593;DHT22;64447;52.140;5.602;2023-09-18T14:20:41;22.80;99.90
35593;DHT22;64447;52.140;5.602;2023-09-18T14:23:07;22.80;99.90
35593;DHT22;64447;52.140;5.602;2023-09-18T14:25:33;22.80;99.90
35593;DHT22;64447;52.140;5.602;2023-09-18T14:27:59;22.80;99.90
35593;DHT22;64447;52.140;5.602;2023-09-18T14:33:46;22.80;99.90
35593;DHT22;64447;52.140;5.602;2023-09-18T14:36:12;22.50;99.90
35593;DHT22;64447;52.140;5.602;2023-09-18T14:38:38;22.50;99.90
35593;DHT22;64447;52.140;5.602;2023-09-18T14:41:05;22.40;99.90
35593;DHT22;64447;52.140;5.602;2023-09-18T14:43:32;22.40;99.90
35593;DHT22;64447;52.140;5.602;2023-09-18T14:45:58;22.50;99.90
35593;DHT22;64447;52.140;5.602;2023-09-18T14:48:24;22.50;99.90
35593;DHT22;64447;52.140;5.602;2023-09-18T14:50:56;22.50;99.90
35593;DHT22;64447;52.140;5.602;2023-09-18T14:53:22;22.50;99.90
35593;DHT22;64447;52.140;5.602;2023-09-18T14:55:48;22.40;99.90
35593;DHT22;64447;52.140;5.602;2023-09-18T14:58:14;22.40;99.90
35593;DHT22;64447;52.140;5.602;2023-09-18T15:04:01;22.40;99.90
35593;DHT22;64447;52.140;5.602;2023-09-18T15:06:27;22.30;99.90
35593;DHT22;64447;52.140;5.602;2023-09-18T15:08:54;22.40;99.90
35593;DHT22;64447;52.140;5.602;2023-09-18T15:11:20;22.50;99.90
35593;DHT22;64447;52.140;5.602;2023-09-18T15:13:46;22.60;99.90
35593;DHT22;64447;52.140;5.602;2023-09-18T15:16:12;22.50;99.90
35593;DHT22;64447;52.140;5.602;2023-09-18T15:18:38;22.60;99.90
35593;DHT22;64447;52.140;5.602;2023-09-18T15:21:04;22.40;99.90
35593;DHT22;64447;52.140;5.602;2023-09-18T15:23:30;21.90;99.90
35593;DHT22;64447;52.140;5.602;2023-09-18T15:25:56;21.50;99.90
35593;DHT22;64447;52.140;5.602;2023-09-18T15:28:25;21.10;99.90
35593;DHT22;64447;52.140;5.602;2023-09-18T15:34:14;19.70;99.90
35593;DHT22;64447;52.140;5.602;2023-09-18T15:36:41;19.20;99.90
35593;DHT22;64447;52.140;5.602;2023-09-18T15:39:07;18.90;99.90
35593;DHT22;64447;52.140;5.602;2023-09-18T15:41:34;18.70;99.90
35593;DHT22;64447;52.140;5.602;2023-09-18T15:44:00;18.50;99.90
35593;DHT22;64447;52.140;5.602;2023-09-18T15:46:26;18.40;99.90
35593;DHT22;64447;52.140;5.602;2023-09-18T15:48:51;18.10;99.90
35593;DHT22;64447;52.140;5.602;2023-09-18T15:51:17;18.20;99.90
35593;DHT22;64447;52.140;5.602;2023-09-18T15:53:43;18.20;99.90
35593;DHT22;64447;52.140;5.602;2023-09-18T15:56:09;18.10;99.90
35593;DHT22;64447;52.140;5.602;2023-09-18T15:58:35;18.20;99.90
35593;DHT22;64447;52.140;5.602;2023-09-18T16:04:24;18.00;99.90
35593;DHT22;64447;52.140;5.602;2023-09-18T16:06:50;17.90;99.90
35593;DHT22;64447;52.140;5.602;2023-09-18T16:09:16;18.00;99.90
35593;DHT22;64447;52.140;5.602;2023-09-18T16:11:41;18.00;99.90
35593;DHT22;64447;52.140;5.602;2023-09-18T16:14:07;18.00;99.90
35593;DHT22;64447;52.140;5.602;2023-09-18T16:16:33;18.10;99.90
35593;DHT22;64447;52.140;5.602;2023-09-18T16:18:59;18.20;99.90
35593;DHT22;64447;52.140;5.602;2023-09-18T16:21:25;18.20;99.90
35593;DHT22;64447;52.140;5.602;2023-09-18T16:23:51;18.30;99.90
35593;DHT22;64447;52.140;5.602;2023-09-18T16:26:19;18.50;99.90
35593;DHT22;64447;52.140;5.602;2023-09-18T16:28:45;18.50;99.90
35593;DHT22;64447;52.140;5.602;2023-09-18T16:34:34;18.50;99.90
35593;DHT22;64447;52.140;5.602;2023-09-18T16:37:00;18.60;99.90
35593;DHT22;64447;52.140;5.602;2023-09-18T16:39:26;18.70;99.90
35593;DHT22;64447;52.140;5.602;2023-09-18T16:41:53;18.80;99.90
35593;DHT22;64447;52.140;5.602;2023-09-18T16:44:18;18.90;99.90
35593;DHT22;64447;52.140;5.602;2023-09-18T16:46:44;18.90;99.90
35593;DHT22;64447;52.140;5.602;2023-09-18T16:49:10;19.00;99.90
35593;DHT22;64447;52.140;5.602;2023-09-18T16:51:37;19.00;99.90
35593;DHT22;64447;52.140;5.602;2023-09-18T16:54:04;19.00;99.90
35593;DHT22;64447;52.140;5.602;2023-09-18T16:56:30;19.00;99.90
35593;DHT22;64447;52.140;5.602;2023-09-18T16:58:56;19.10;99.90
35593;DHT22;64447;52.140;5.602;2023-09-18T17:04:43;18.80;99.90
35593;DHT22;64447;52.140;5.602;2023-09-18T17:07:09;18.80;99.90
35593;DHT22;64447;52.140;5.602;2023-09-18T17:09:36;18.70;99.90
35593;DHT22;64447;52.140;5.602;2023-09-18T17:12:02;18.70;99.90
35593;DHT22;64447;52.140;5.602;2023-09-18T17:14:28;18.70;99.90
35593;DHT22;64447;52.140;5.602;2023-09-18T17:16:54;18.70;99.90
35593;DHT22;64447;52.140;5.602;2023-09-18T17:19:19;18.70;99.90
35593;DHT22;64447;52.140;5.602;2023-09-18T17:21:45;18.70;99.90
35593;DHT22;64447;52.140;5.602;2023-09-18T17:24:10;18.70;99.90
35593;DHT22;64447;52.140;5.602;2023-09-18T17:26:36;18.60;99.90
35593;DHT22;64447;52.140;5.602;2023-09-18T17:29:02;18.50;99.90
35593;DHT22;64447;52.140;5.602;2023-09-18T17:34:50;18.50;99.90